TJSJ

Luis Munoz Marin International Airport

San Juan, Puerto Rico, USA
TJSJ 251740Z 2518/2618 07015G21KT P6SM FEW025 FM252200 10008KT P6SM SCT035 FM260600 VRB03KT P6SM VCSH SCT030 FM261300 09013KT P6SM VCSH SCT025 SCT050
Issued Valid From Valid To
Apr-25 @ 17:40 UTC
(18 minutes ago)
Apr-25 @ 18:00 UTC
(in 2 minutes)
Apr-26 @ 18:00 UTC
(in 24 hours)
Apr-25 @ 18:00 to Apr-25 @ 22:00
TJSJ 251740Z 2518/2618 07015G21KT P6SM FEW025
Wind Visibility Clouds
70° at 15 knots
 Gusting to 21 knots
Greater than 6 miles
  • Few at 2,500' AGL
From Apr-25 @ 22:00 to Apr-26 @ 06:00
FM252200 10008KT P6SM SCT035
Wind Visibility Clouds
100° at 8 knots Greater than 6 miles
  • Scattered at 3,500' AGL
From Apr-26 @ 06:00 to Apr-26 @ 13:00
FM260600 VRB03KT P6SM VCSH SCT030
Wind Visibility Clouds
Variable at 3 knots Greater than 6 miles
  • Scattered at 3,000' AGL
From Apr-26 @ 13:00 to Apr-26 @ 18:00
FM261300 09013KT P6SM VCSH SCT025 SCT050
Wind Visibility Clouds
90° at 13 knots Greater than 6 miles
  • Scattered at 2,500' AGL
  • Scattered at 5,000' AGL
TJSJ 251740Z 2518/2618 07015G21KT P6SM FEW025 FM252200 10008KT P6SM SCT035 FM260600 VRB03KT P6SM VCSH SCT030 FM261300 09013KT P6SM VCSH SCT025 SCT050
Issued Apr-25 @ 17:40 UTC
(18 minutes ago)
Valid From Apr-25 @ 18:00 UTC
(in 2 minutes)
Valid To Apr-26 @ 18:00 UTC
(in 24 hours)
Apr-25 @ 18:00 - Apr-25 @ 22:00
Wind Visibility
70° at 15 knots
 Gusting to 21 knots
Greater than 6 miles
Clouds
  • Few at 2,500' AGL
From Apr-25 @ 22:00 - Apr-26 @ 06:00
Wind Visibility
100° at 8 knots Greater than 6 miles
Clouds
  • Scattered at 3,500' AGL
From Apr-26 @ 06:00 - Apr-26 @ 13:00
Wind Visibility
Variable at 3 knots Greater than 6 miles
Clouds
  • Scattered at 3,000' AGL
From Apr-26 @ 13:00 - Apr-26 @ 18:00
Wind Visibility
90° at 13 knots Greater than 6 miles
Clouds
  • Scattered at 2,500' AGL
  • Scattered at 5,000' AGL